createdAt,value
2022-09-29T00:01:52.517Z,11.20
2022-09-29T00:04:40.495Z,11.20
2022-09-29T00:07:21.762Z,11.00
2022-09-29T00:10:09.568Z,11.00
2022-09-29T00:12:50.706Z,10.90
2022-09-29T00:15:38.452Z,11.30
2022-09-29T00:18:21.690Z,11.20
2022-09-29T00:21:10.458Z,11.30
2022-09-29T00:23:51.666Z,11.50
2022-09-29T00:26:46.559Z,11.60
2022-09-29T00:29:34.758Z,11.50
2022-09-29T00:32:23.512Z,11.50
2022-09-29T00:35:13.734Z,11.70
2022-09-29T00:38:01.540Z,11.90
2022-09-29T00:40:49.727Z,11.90
2022-09-29T00:43:39.504Z,11.60
2022-09-29T00:46:29.621Z,11.50
2022-09-29T00:49:22.480Z,11.40
2022-09-29T00:52:13.671Z,11.30
2022-09-29T00:54:57.537Z,11.30
2022-09-29T00:57:49.661Z,11.50
2022-09-29T01:00:44.538Z,11.60
2022-09-29T01:03:33.735Z,11.50
2022-09-29T01:06:19.485Z,11.20
2022-09-29T01:09:09.746Z,11.00
2022-09-29T01:11:59.569Z,10.80
2022-09-29T01:14:47.670Z,10.90
2022-09-29T01:17:36.520Z,10.90
2022-09-29T01:20:26.746Z,10.80
2022-09-29T01:23:38.532Z,10.90
2022-09-29T01:26:41.787Z,11.20
2022-09-29T01:29:33.499Z,11.40
2022-09-29T01:32:26.726Z,11.20
2022-09-29T01:35:12.516Z,11.00
2022-09-29T01:38:05.715Z,10.80
2022-09-29T01:40:50.501Z,10.70
2022-09-29T01:43:41.713Z,10.70
2022-09-29T01:46:31.548Z,10.60
2022-09-29T01:49:15.951Z,10.60
2022-09-29T01:52:14.527Z,10.70
2022-09-29T01:55:04.682Z,10.80
2022-09-29T01:57:56.551Z,10.80
2022-09-29T02:00:57.644Z,11.00
2022-09-29T02:03:47.678Z,10.90
2022-09-29T02:06:32.677Z,10.90
2022-09-29T02:09:16.777Z,11.10
2022-09-29T02:12:13.525Z,11.00
2022-09-29T02:15:01.750Z,10.90
2022-09-29T02:17:51.519Z,10.80
2022-09-29T02:20:39.765Z,10.80
2022-09-29T02:23:29.522Z,10.80
2022-09-29T02:26:17.779Z,10.80
2022-09-29T02:29:05.523Z,10.60
2022-09-29T02:31:54.784Z,10.60
2022-09-29T02:34:36.595Z,10.80
2022-09-29T02:37:30.723Z,10.50
2022-09-29T02:40:24.613Z,10.40
2022-09-29T02:43:19.745Z,10.40
2022-09-29T02:46:09.611Z,10.30
2022-09-29T02:49:03.663Z,10.20
2022-09-29T02:51:54.563Z,10.20
2022-09-29T02:54:49.740Z,10.30
2022-09-29T02:57:43.557Z,10.30
2022-09-29T03:00:38.652Z,10.30
2022-09-29T03:03:33.631Z,10.30
2022-09-29T03:06:22.403Z,10.30
2022-09-29T03:09:10.613Z,10.30
2022-09-29T03:11:58.723Z,10.30
2022-09-29T03:14:41.537Z,10.50
2022-09-29T03:17:29.655Z,10.60
2022-09-29T03:20:11.626Z,10.60
2022-09-29T03:23:03.710Z,10.70
2022-09-29T03:25:44.549Z,10.90
2022-09-29T03:28:33.019Z,11.30
2022-09-29T03:31:16.674Z,11.50
2022-09-29T03:34:04.777Z,11.70
2022-09-29T03:36:52.541Z,11.50
2022-09-29T03:39:40.723Z,11.30
2022-09-29T03:42:35.569Z,11.00
2022-09-29T03:45:23.631Z,10.90
2022-09-29T03:48:06.659Z,10.80
2022-09-29T03:50:54.561Z,10.70
2022-09-29T03:53:42.618Z,10.60
2022-09-29T03:56:31.102Z,10.60
2022-09-29T03:59:21.535Z,10.50
2022-09-29T04:02:09.842Z,10.50
2022-09-29T04:04:52.641Z,10.60
2022-09-29T04:07:40.835Z,10.50
2022-09-29T04:10:22.629Z,10.40
2022-09-29T04:13:10.796Z,10.50
2022-09-29T04:15:52.542Z,10.30
2022-09-29T04:18:40.757Z,10.30
2022-09-29T04:21:23.630Z,10.20
2022-09-29T04:24:11.815Z,10.30
2022-09-29T04:26:59.560Z,10.50
2022-09-29T04:29:47.759Z,10.60
2022-09-29T04:32:35.552Z,10.80
2022-09-29T04:35:23.724Z,11.20
2022-09-29T04:38:14.557Z,11.50
2022-09-29T04:41:02.841Z,11.50
2022-09-29T04:43:50.571Z,11.40
2022-09-29T04:46:38.704Z,11.20
2022-09-29T04:49:19.642Z,11.10
2022-09-29T04:52:07.774Z,10.90
2022-09-29T04:54:50.572Z,10.80
2022-09-29T04:57:38.779Z,10.60
2022-09-29T05:00:33.664Z,10.50
2022-09-29T05:03:28.658Z,10.40
2022-09-29T05:06:17.713Z,10.30
2022-09-29T05:09:06.682Z,10.30
2022-09-29T05:11:56.025Z,10.50
2022-09-29T05:14:37.576Z,10.60
2022-09-29T05:17:25.782Z,10.70
2022-09-29T05:20:07.584Z,10.80
2022-09-29T05:22:55.848Z,11.00
2022-09-29T05:25:39.647Z,11.20
2022-09-29T05:28:28.771Z,11.20
2022-09-29T05:31:10.691Z,11.00
2022-09-29T05:33:58.752Z,10.70
2022-09-29T05:36:53.623Z,10.50
2022-09-29T05:39:41.968Z,10.40
2022-09-29T05:42:30.801Z,10.30
2022-09-29T05:45:19.812Z,10.40
2022-09-29T05:48:08.578Z,10.40
2022-09-29T05:50:56.968Z,10.60
2022-09-29T05:53:45.578Z,10.50
2022-09-29T05:56:34.750Z,10.50
2022-09-29T05:59:29.658Z,10.60
2022-09-29T06:02:18.933Z,10.60
2022-09-29T06:05:00.655Z,10.60
2022-09-29T06:07:49.006Z,10.50
2022-09-29T06:10:30.615Z,10.60
2022-09-29T06:13:18.839Z,10.60
2022-09-29T06:16:00.592Z,10.50
2022-09-29T06:18:49.901Z,10.30
2022-09-29T06:21:40.596Z,10.60
2022-09-29T06:24:22.108Z,10.60
2022-09-29T06:27:17.655Z,10.50
2022-09-29T06:30:05.862Z,10.70
2022-09-29T06:32:54.616Z,10.70
2022-09-29T06:36:01.260Z,10.40
2022-09-29T06:38:48.686Z,10.30
2022-09-29T06:41:36.817Z,10.50
2022-09-29T06:44:18.582Z,10.50
2022-09-29T06:47:09.110Z,10.70
2022-09-29T06:49:54.944Z,10.80
2022-09-29T06:53:03.992Z,11.00
2022-09-29T06:55:46.687Z,11.20
2022-09-29T06:58:35.578Z,11.30
2022-09-29T07:01:23.741Z,11.20
2022-09-29T07:04:04.920Z,11.20
2022-09-29T07:06:59.678Z,11.30
2022-09-29T07:09:48.739Z,11.40
2022-09-29T07:12:36.697Z,11.10
2022-09-29T07:15:31.722Z,10.80
2022-09-29T07:18:20.609Z,10.60
2022-09-29T07:21:10.036Z,10.70
2022-09-29T07:24:02.035Z,10.90
2022-09-29T07:26:50.838Z,11.00
2022-09-29T07:29:32.615Z,11.10
2022-09-29T07:32:27.735Z,11.10
2022-09-29T07:35:10.619Z,11.00
2022-09-29T07:37:59.064Z,11.40
2022-09-29T07:40:40.713Z,11.30
2022-09-29T07:43:29.769Z,11.10
2022-09-29T07:46:11.782Z,11.10
2022-09-29T07:49:02.866Z,11.10
2022-09-29T07:51:50.624Z,11.10
2022-09-29T07:54:38.918Z,11.00
2022-09-29T07:57:26.673Z,11.10
2022-09-29T08:00:23.729Z,11.30
2022-09-29T08:03:18.718Z,11.20
2022-09-29T08:06:06.861Z,11.10
2022-09-29T08:09:04.244Z,11.40
2022-09-29T08:12:03.009Z,11.60
2022-09-29T08:14:47.747Z,11.80
2022-09-29T08:17:36.872Z,11.70
2022-09-29T08:20:18.840Z,11.80
2022-09-29T08:23:06.973Z,11.80
2022-09-29T08:25:57.878Z,11.80
2022-09-29T08:28:56.036Z,12.10
2022-09-29T08:31:46.814Z,11.90
2022-09-29T08:34:36.672Z,12.00
2022-09-29T08:37:24.642Z,12.50
2022-09-29T08:40:12.867Z,12.50
2022-09-29T08:43:06.640Z,12.30
2022-09-29T08:46:00.898Z,12.70
2022-09-29T08:48:58.144Z,12.80
2022-09-29T08:51:50.930Z,13.10
2022-09-29T08:54:39.051Z,12.90
2022-09-29T08:57:28.060Z,13.10
2022-09-29T09:00:18.656Z,13.10
2022-09-29T09:03:13.766Z,12.90
2022-09-29T09:06:12.833Z,13.00
2022-09-29T09:09:00.870Z,13.10
2022-09-29T09:12:04.665Z,13.00
2022-09-29T09:14:59.779Z,13.10
2022-09-29T09:18:00.672Z,13.20
2022-09-29T09:20:51.812Z,13.40
2022-09-29T09:23:44.663Z,13.30
2022-09-29T09:26:39.811Z,13.50
2022-09-29T09:29:24.724Z,13.50
2022-09-29T09:32:14.855Z,13.80
2022-09-29T09:35:06.546Z,13.60
2022-09-29T09:37:58.836Z,13.60
2022-09-29T09:40:44.722Z,13.70
2022-09-29T09:43:35.087Z,13.70
2022-09-29T09:46:20.735Z,13.60
2022-09-29T09:49:10.881Z,13.70
2022-09-29T09:52:00.751Z,13.70
2022-09-29T09:54:50.815Z,13.90
2022-09-29T09:57:54.671Z,14.20
2022-09-29T10:00:44.917Z,14.40
2022-09-29T10:03:32.686Z,14.30
2022-09-29T10:06:20.932Z,14.30
2022-09-29T10:09:08.767Z,14.40
2022-09-29T10:11:57.423Z,14.40
2022-09-29T10:14:39.675Z,14.50
2022-09-29T10:17:30.888Z,14.90
2022-09-29T10:20:13.657Z,14.80
2022-09-29T10:23:01.873Z,14.60
2022-09-29T10:25:44.668Z,14.80
2022-09-29T10:28:33.966Z,14.80
2022-09-29T10:31:25.685Z,14.80
2022-09-29T10:34:23.812Z,15.00
2022-09-29T10:37:12.732Z,15.10
2022-09-29T10:40:10.689Z,15.10
2022-09-29T10:42:59.761Z,15.00
2022-09-29T10:45:58.792Z,15.10
2022-09-29T10:48:47.682Z,15.10
2022-09-29T10:51:36.954Z,15.60
2022-09-29T10:54:22.684Z,15.70
2022-09-29T10:57:19.952Z,16.00
2022-09-29T11:00:14.672Z,16.30
2022-09-29T11:03:07.987Z,16.30
2022-09-29T11:05:58.816Z,16.30
2022-09-29T11:09:03.997Z,16.20
2022-09-29T11:11:56.581Z,16.60
2022-09-29T11:14:48.933Z,16.30
2022-09-29T11:17:44.680Z,16.20
2022-09-29T11:20:36.925Z,16.50
2022-09-29T11:23:34.804Z,16.30
2022-09-29T11:26:29.919Z,16.40
2022-09-29T11:29:36.821Z,16.60
2022-09-29T11:32:33.895Z,16.90
2022-09-29T11:35:24.697Z,16.70
2022-09-29T11:38:25.958Z,16.40
2022-09-29T11:41:12.743Z,16.50
2022-09-29T11:44:03.880Z,16.40
2022-09-29T11:47:05.721Z,16.50
2022-09-29T11:49:58.932Z,16.30
2022-09-29T11:52:54.670Z,16.70
2022-09-29T11:55:48.859Z,17.00
2022-09-29T11:58:42.709Z,17.10
2022-09-29T12:01:44.754Z,17.30
2022-09-29T12:04:41.792Z,17.70
2022-09-29T12:07:38.133Z,17.80
2022-09-29T12:10:36.696Z,17.80
2022-09-29T12:13:30.248Z,17.60
2022-09-29T12:16:15.855Z,17.20
2022-09-29T12:19:07.254Z,17.00
2022-09-29T12:21:56.710Z,16.90
2022-09-29T12:24:52.730Z,16.60
2022-09-29T12:27:49.730Z,16.50
2022-09-29T12:30:35.332Z,16.80
2022-09-29T12:33:27.733Z,16.90
2022-09-29T12:36:46.839Z,16.80
2022-09-29T12:39:39.803Z,16.70
2022-09-29T12:42:34.947Z,16.50
2022-09-29T12:45:19.755Z,16.30
2022-09-29T12:48:13.281Z,16.20
2022-09-29T12:50:57.796Z,16.50
2022-09-29T12:53:51.381Z,16.50
2022-09-29T12:56:35.734Z,16.50
2022-09-29T12:59:17.892Z,16.40
2022-09-29T13:02:12.769Z,16.20
2022-09-29T13:05:16.791Z,16.40
2022-09-29T13:08:19.434Z,16.60
2022-09-29T13:11:16.927Z,17.00
2022-09-29T13:14:19.721Z,17.10
2022-09-29T13:17:15.963Z,17.10
2022-09-29T13:20:17.736Z,17.10
2022-09-29T13:23:25.363Z,17.40
2022-09-29T13:26:24.739Z,17.40
2022-09-29T13:29:18.098Z,17.50
2022-09-29T13:32:09.859Z,17.70
2022-09-29T13:35:01.121Z,17.40
2022-09-29T13:37:57.853Z,17.00
2022-09-29T13:40:45.942Z,17.10
2022-09-29T13:43:48.886Z,17.00
2022-09-29T13:46:43.974Z,17.20
2022-09-29T13:49:32.751Z,17.30
2022-09-29T13:52:35.925Z,17.40
2022-09-29T13:55:41.736Z,17.50
2022-09-29T13:58:28.942Z,17.30
2022-09-29T14:01:43.763Z,17.60
2022-09-29T14:04:40.921Z,17.40
2022-09-29T14:07:49.971Z,17.90
2022-09-29T14:10:45.019Z,18.20
2022-09-29T14:13:36.752Z,17.80
2022-09-29T14:16:32.047Z,17.60
2022-09-29T14:19:14.755Z,17.40
2022-09-29T14:22:05.626Z,17.80
2022-09-29T14:24:56.771Z,17.80
2022-09-29T14:27:49.364Z,17.90
2022-09-29T14:30:44.893Z,17.90
2022-09-29T14:33:37.242Z,17.80
2022-09-29T14:36:21.777Z,17.70
2022-09-29T14:39:27.349Z,17.20
2022-09-29T14:42:23.962Z,17.00
2022-09-29T14:45:22.870Z,16.90
2022-09-29T14:48:31.713Z,16.80
2022-09-29T14:51:35.825Z,16.70
2022-09-29T14:54:22.997Z,16.90
2022-09-29T14:57:22.859Z,16.90
2022-09-29T15:00:20.906Z,17.00
2022-09-29T15:03:27.688Z,16.90
2022-09-29T15:06:12.986Z,16.90
2022-09-29T15:09:07.943Z,17.10
2022-09-29T15:12:04.458Z,17.10
2022-09-29T15:14:44.838Z,17.20
2022-09-29T15:17:48.031Z,17.00
2022-09-29T15:20:31.109Z,17.20
2022-09-29T15:23:27.981Z,17.30
2022-09-29T15:26:09.829Z,17.30
2022-09-29T15:28:59.035Z,16.90
2022-09-29T15:31:47.803Z,16.80
2022-09-29T15:34:36.015Z,16.90
2022-09-29T15:37:27.920Z,16.80
2022-09-29T15:40:22.132Z,16.60
2022-09-29T15:43:10.773Z,16.50
2022-09-29T15:46:04.079Z,16.50
2022-09-29T15:49:18.847Z,16.50
2022-09-29T15:52:07.908Z,16.60
2022-09-29T15:54:51.835Z,16.70
2022-09-29T15:57:50.456Z,16.80
2022-09-29T16:00:56.804Z,16.60
2022-09-29T16:03:50.769Z,16.60
2022-09-29T16:06:41.801Z,16.50
2022-09-29T16:09:30.140Z,16.50
2022-09-29T16:12:20.784Z,16.30
2022-09-29T16:15:08.997Z,16.40
2022-09-29T16:17:56.896Z,16.20
2022-09-29T16:20:50.704Z,16.30
2022-09-29T16:23:40.860Z,16.20
2022-09-29T16:26:40.984Z,16.40
2022-09-29T16:29:32.870Z,16.30
2022-09-29T16:32:42.740Z,16.20
2022-09-29T16:35:45.876Z,16.00
2022-09-29T16:38:41.010Z,16.20
2022-09-29T16:41:26.919Z,16.10
2022-09-29T16:44:27.894Z,15.90
2022-09-29T16:47:21.021Z,15.80
2022-09-29T16:50:13.618Z,15.80
2022-09-29T16:52:56.042Z,15.70
2022-09-29T16:55:44.877Z,15.80
2022-09-29T16:58:27.049Z,15.90
2022-09-29T17:01:23.907Z,15.80
2022-09-29T17:04:11.973Z,15.80
2022-09-29T17:07:02.839Z,15.60
2022-09-29T17:09:55.845Z,15.60
2022-09-29T17:12:45.879Z,15.60
2022-09-29T17:15:34.140Z,15.30
2022-09-29T17:18:23.912Z,15.30
2022-09-29T17:21:12.094Z,15.40
2022-09-29T17:24:00.814Z,15.50
2022-09-29T17:27:07.808Z,15.30
2022-09-29T17:29:51.868Z,15.30
2022-09-29T17:32:42.400Z,15.30
2022-09-29T17:35:27.875Z,15.20
2022-09-29T17:38:16.068Z,15.20
2022-09-29T17:40:58.882Z,15.20
2022-09-29T17:43:47.641Z,15.20
2022-09-29T17:46:38.030Z,15.20
2022-09-29T17:49:27.122Z,15.10
2022-09-29T17:52:16.906Z,15.10
2022-09-29T17:55:05.531Z,15.20
2022-09-29T17:57:53.954Z,15.00
2022-09-29T18:00:49.821Z,15.00
2022-09-29T18:03:45.893Z,14.90
2022-09-29T18:06:37.443Z,14.90
2022-09-29T18:09:22.941Z,15.10
2022-09-29T18:12:11.065Z,15.20
2022-09-29T18:14:53.011Z,15.00
2022-09-29T18:17:41.231Z,14.90
2022-09-29T18:20:25.942Z,14.90
2022-09-29T18:23:15.247Z,14.80
2022-09-29T18:25:56.879Z,15.00
2022-09-29T18:28:48.438Z,15.00
2022-09-29T18:31:38.960Z,14.90
2022-09-29T18:34:30.988Z,15.00
2022-09-29T18:37:20.881Z,14.90
2022-09-29T18:40:09.055Z,14.90
2022-09-29T18:42:58.829Z,14.90
2022-09-29T18:45:47.240Z,14.90
2022-09-29T18:48:34.948Z,14.90
2022-09-29T18:51:23.074Z,14.80
2022-09-29T18:54:12.854Z,14.80
2022-09-29T18:57:01.488Z,14.90
2022-09-29T18:59:42.867Z,14.80
2022-09-29T19:02:37.937Z,14.70
2022-09-29T19:05:27.972Z,14.60
2022-09-29T19:08:10.013Z,14.70
2022-09-29T19:11:00.878Z,14.70
2022-09-29T19:13:42.321Z,14.70
2022-09-29T19:16:37.904Z,14.70
2022-09-29T19:19:26.225Z,14.60
2022-09-29T19:22:20.895Z,14.60
2022-09-29T19:25:09.086Z,14.50
2022-09-29T19:27:58.849Z,14.50
2022-09-29T19:30:48.276Z,14.40
2022-09-29T19:33:36.870Z,14.20
2022-09-29T19:36:26.198Z,14.10
2022-09-29T19:39:07.889Z,14.00
2022-09-29T19:41:56.031Z,13.90
2022-09-29T19:44:38.894Z,13.80
2022-09-29T19:47:27.064Z,13.80
2022-09-29T19:50:21.971Z,13.80
2022-09-29T19:55:58.881Z,13.70
2022-09-29T19:58:48.579Z,13.80
2022-09-29T20:02:00.918Z,13.90
2022-09-29T20:04:52.050Z,14.00
2022-09-29T20:07:40.867Z,13.80
2022-09-29T20:10:29.331Z,13.70
2022-09-29T20:13:20.893Z,13.80
2022-09-29T20:16:09.089Z,13.80
2022-09-29T20:18:58.971Z,13.80
2022-09-29T20:21:48.071Z,13.80
2022-09-29T20:24:31.900Z,14.00
2022-09-29T20:27:20.136Z,14.20
2022-09-29T20:30:02.003Z,14.30
2022-09-29T20:32:50.680Z,13.70
2022-09-29T20:35:32.930Z,13.50
2022-09-29T20:38:21.208Z,13.30
2022-09-29T20:41:06.902Z,13.10
2022-09-29T20:43:55.534Z,13.20
2022-09-29T20:46:43.959Z,13.30
2022-09-29T20:49:32.133Z,13.20
2022-09-29T20:52:21.965Z,13.10
2022-09-29T20:55:12.038Z,13.00
2022-09-29T20:58:01.911Z,12.90
2022-09-29T21:00:57.000Z,13.00
2022-09-29T21:03:51.940Z,13.20
2022-09-29T21:06:41.308Z,13.40
2022-09-29T21:09:24.954Z,13.40
2022-09-29T21:12:13.108Z,13.30
2022-09-29T21:14:56.923Z,13.10
2022-09-29T21:17:45.057Z,13.00
2022-09-29T21:20:26.940Z,13.10
2022-09-29T21:23:16.035Z,13.20
2022-09-29T21:26:04.951Z,13.20
2022-09-29T21:28:56.179Z,13.20
2022-09-29T21:31:45.049Z,13.00
2022-09-29T21:34:33.252Z,12.80
2022-09-29T21:37:21.928Z,12.80
2022-09-29T21:40:10.309Z,12.80
2022-09-29T21:42:59.920Z,12.90
2022-09-29T21:45:48.121Z,13.10
2022-09-29T21:48:35.910Z,12.90
2022-09-29T21:51:27.430Z,12.90
2022-09-29T21:54:09.013Z,12.60
2022-09-29T21:57:03.911Z,12.60
2022-09-29T21:59:53.126Z,12.50
2022-09-29T22:02:48.058Z,12.70
2022-09-29T22:05:37.531Z,12.80
2022-09-29T22:08:26.154Z,12.60
2022-09-29T22:11:14.072Z,12.50
2022-09-29T22:14:02.991Z,12.30
2022-09-29T22:16:53.325Z,12.20
2022-09-29T22:19:35.334Z,12.40
2022-09-29T22:22:23.157Z,12.40
2022-09-29T22:25:03.957Z,12.30
2022-09-29T22:27:52.127Z,12.20
2022-09-29T22:30:39.943Z,12.00
2022-09-29T22:33:23.193Z,12.00
2022-09-29T22:36:11.926Z,12.10
2022-09-29T22:38:53.044Z,12.30
2022-09-29T22:41:48.005Z,12.60
2022-09-29T22:44:36.235Z,12.60
2022-09-29T22:47:24.013Z,12.30
2022-09-29T22:50:14.145Z,12.20
2022-09-29T22:53:03.936Z,12.40
2022-09-29T22:55:52.100Z,12.40
2022-09-29T22:58:40.029Z,12.10
2022-09-29T23:01:35.020Z,12.20
2022-09-29T23:04:23.002Z,12.20
2022-09-29T23:07:06.838Z,12.20
2022-09-29T23:09:54.993Z,12.20
2022-09-29T23:12:36.182Z,12.20
2022-09-29T23:15:23.928Z,12.00
2022-09-29T23:18:05.201Z,12.00
2022-09-29T23:20:52.951Z,12.10
2022-09-29T23:23:36.177Z,12.20
2022-09-29T23:26:23.972Z,12.40
2022-09-29T23:29:07.700Z,12.20
2022-09-29T23:32:02.068Z,11.90
2022-09-29T23:34:50.191Z,11.80
2022-09-29T23:37:58.960Z,11.70
2022-09-29T23:40:47.212Z,11.70
2022-09-29T23:43:34.977Z,11.70
2022-09-29T23:46:23.492Z,11.60
2022-09-29T23:49:05.055Z,11.80
2022-09-29T23:51:53.239Z,11.90
2022-09-29T23:54:35.955Z,11.80
2022-09-29T23:57:25.394Z,11.70
